Time;durP1;ratioP1;P1;durP2;ratioP2;P2;SDS_P1;SDS_P2;PMS_P1;PMS_P2;Temp;Humidity;BMP_temperature;BMP_pressure;BME280_temperature;BME280_humidity;BME280_pressure;Samples;Min_cycle;Max_cycle;Signal;HPM_P1;HPM_P2
2023/05/13 00:00:31;;;;;;;13.43;11.13;;;14.50;99.90;;;;;;5012947;28;20295;-81
2023/05/13 00:02:58;;;;;;;13.57;11.13;;;14.40;99.90;;;;;;5013044;28;20199;-83
2023/05/13 00:05:25;;;;;;;17.50;10.77;;;14.40;99.90;;;;;;5026634;28;20207;-83
2023/05/13 00:07:53;;;;;;;14.80;12.13;;;14.30;99.90;;;;;;5034313;28;20277;-82
2023/05/13 00:10:20;;;;;;;12.27;11.13;;;14.20;99.90;;;;;;5033893;28;20302;-77
2023/05/13 00:12:47;;;;;;;11.40;10.23;;;14.20;99.90;;;;;;5017664;28;20207;-76
2023/05/13 00:15:14;;;;;;;12.13;10.10;;;14.20;99.90;;;;;;5013388;28;20203;-76
2023/05/13 00:17:41;;;;;;;12.20;10.63;;;14.10;99.90;;;;;;5013462;28;20202;-76
2023/05/13 00:20:08;;;;;;;11.82;9.82;;;14.10;99.90;;;;;;5012985;28;20245;-76
2023/05/13 00:22:35;;;;;;;12.10;9.77;;;14.10;99.90;;;;;;5013491;28;20204;-76
2023/05/13 00:25:04;;;;;;;13.15;10.10;;;14.10;99.90;;;;;;5013263;28;20276;-77
2023/05/13 00:27:31;;;;;;;13.68;10.80;;;14.00;99.90;;;;;;5012599;28;20227;-77
2023/05/13 00:29:59;;;;;;;13.40;10.00;;;14.00;99.90;;;;;;5018649;28;20214;-77
2023/05/13 00:32:26;;;;;;;11.43;10.20;;;14.00;99.90;;;;;;5032898;28;20249;-76
2023/05/13 00:34:53;;;;;;;15.40;10.90;;;13.90;99.90;;;;;;5032077;28;20202;-78
2023/05/13 00:37:20;;;;;;;10.45;9.45;;;13.90;99.90;;;;;;5037110;28;20195;-83
2023/05/13 00:39:47;;;;;;;14.25;10.82;;;13.80;99.90;;;;;;5021293;28;20246;-84
2023/05/13 00:42:15;;;;;;;14.05;10.25;;;13.80;99.90;;;;;;5017697;28;20210;-82
2023/05/13 00:44:42;;;;;;;12.35;10.15;;;13.80;99.90;;;;;;5018029;28;20204;-84
2023/05/13 00:47:11;;;;;;;13.77;11.27;;;13.80;99.90;;;;;;5017646;28;20859;-83
2023/05/13 00:49:38;;;;;;;14.02;9.73;;;13.80;99.90;;;;;;5017610;28;20203;-83
2023/05/13 00:52:05;;;;;;;11.07;9.93;;;13.70;99.90;;;;;;5018025;28;20203;-84
2023/05/13 00:54:32;;;;;;;13.15;10.23;;;13.70;99.90;;;;;;5017751;28;20200;-74
2023/05/13 00:56:59;;;;;;;13.83;10.97;;;13.70;99.90;;;;;;5016441;28;20213;-76
2023/05/13 00:59:30;;;;;;;9.93;8.93;;;13.60;99.90;;;;;;5016737;28;20303;-75
2023/05/13 01:02:03;;;;;;;13.32;10.63;;;13.60;99.90;;;;;;5015905;28;20299;-77
2023/05/13 01:04:36;;;;;;;11.68;10.48;;;13.50;99.90;;;;;;5016348;28;20239;-79
2023/05/13 01:07:12;;;;;;;11.17;10.13;;;13.50;99.90;;;;;;5016401;28;20227;-75
2023/05/13 01:09:48;;;;;;;12.57;10.60;;;13.50;99.90;;;;;;5015519;28;20195;-76
2023/05/13 01:12:21;;;;;;;13.00;10.10;;;13.50;99.90;;;;;;5016432;28;20195;-76
2023/05/13 01:14:56;;;;;;;11.33;9.73;;;13.40;99.90;;;;;;5016305;28;20196;-75
2023/05/13 01:17:31;;;;;;;11.60;10.03;;;13.30;99.90;;;;;;5015817;28;20245;-75
2023/05/13 01:20:00;;;;;;;16.37;11.73;;;13.30;99.90;;;;;;5015749;28;20207;-77
2023/05/13 01:22:28;;;;;;;11.57;9.37;;;13.30;99.90;;;;;;5016307;28;20225;-80
2023/05/13 01:24:55;;;;;;;11.53;10.03;;;13.20;99.90;;;;;;5015306;28;20283;-75
2023/05/13 01:27:22;;;;;;;13.93;9.90;;;13.20;99.90;;;;;;5015958;28;20227;-76
2023/05/13 01:29:49;;;;;;;10.77;9.07;;;13.20;99.90;;;;;;5015198;28;20286;-75
2023/05/13 01:32:17;;;;;;;9.70;8.30;;;13.20;99.90;;;;;;5015895;28;20213;-75
2023/05/13 01:34:46;;;;;;;12.93;10.93;;;13.10;99.90;;;;;;5015856;28;20295;-77
2023/05/13 01:37:13;;;;;;;10.43;9.30;;;13.10;99.90;;;;;;5015309;28;20210;-76
2023/05/13 01:39:42;;;;;;;8.80;7.90;;;13.10;99.90;;;;;;5015579;28;20574;-76
2023/05/13 01:42:09;;;;;;;13.13;10.17;;;13.00;99.90;;;;;;5015628;28;20203;-76
2023/05/13 01:44:36;;;;;;;11.50;9.47;;;13.00;99.90;;;;;;5016067;28;20252;-83
2023/05/13 01:47:02;;;;;;;13.57;9.70;;;13.00;99.90;;;;;;5015649;28;20314;-83
2023/05/13 01:49:29;;;;;;;10.20;9.17;;;13.00;99.90;;;;;;5017336;28;20200;-84
2023/05/13 01:51:56;;;;;;;12.07;9.63;;;12.90;99.90;;;;;;5016572;28;20195;-82
2023/05/13 01:54:24;;;;;;;11.50;10.00;;;13.00;99.90;;;;;;5016245;28;20266;-83
2023/05/13 01:56:52;;;;;;;12.97;10.67;;;12.90;99.90;;;;;;5016223;28;20191;-83
2023/05/13 01:59:19;;;;;;;12.30;10.80;;;13.00;99.90;;;;;;5016224;28;20203;-83
2023/05/13 02:01:46;;;;;;;15.53;11.07;;;12.90;99.90;;;;;;5016690;28;20215;-78
2023/05/13 02:04:13;;;;;;;14.27;11.77;;;12.80;99.90;;;;;;5015240;28;20237;-76
2023/05/13 02:06:40;;;;;;;15.63;12.10;;;12.90;99.90;;;;;;5014969;28;20230;-75
2023/05/13 02:09:07;;;;;;;13.07;11.07;;;12.90;99.90;;;;;;5015167;28;20582;-76
2023/05/13 02:11:34;;;;;;;14.40;12.23;;;12.90;99.90;;;;;;5015280;28;20199;-76
2023/05/13 02:14:02;;;;;;;15.00;12.80;;;12.90;99.90;;;;;;5014908;28;20199;-75
2023/05/13 02:16:31;;;;;;;15.20;11.50;;;12.80;99.90;;;;;;5015104;28;20191;-79
2023/05/13 02:18:57;;;;;;;18.33;13.87;;;12.80;99.90;;;;;;5014744;28;20210;-76
2023/05/13 02:21:24;;;;;;;14.40;12.90;;;12.80;99.90;;;;;;5015243;28;20211;-76
2023/05/13 02:23:51;;;;;;;16.33;13.70;;;12.70;99.90;;;;;;5030270;28;20548;-77
2023/05/13 02:26:18;;;;;;;15.30;13.73;;;12.70;99.90;;;;;;5034027;28;20260;-76
2023/05/13 02:28:45;;;;;;;16.27;14.23;;;12.70;99.90;;;;;;5034559;28;20756;-77
2023/05/13 02:31:13;;;;;;;16.67;13.53;;;12.70;99.90;;;;;;5033514;28;20207;-77
2023/05/13 02:33:40;;;;;;;17.27;14.77;;;12.60;99.90;;;;;;5033570;28;20195;-77
2023/05/13 02:36:07;;;;;;;20.03;15.63;;;12.60;99.90;;;;;;5034752;28;20198;-75
2023/05/13 02:38:34;;;;;;;17.80;15.17;;;12.60;99.90;;;;;;5033867;28;20206;-76
2023/05/13 02:41:01;;;;;;;17.20;15.50;;;12.50;99.90;;;;;;5034003;28;20205;-77
2023/05/13 02:43:28;;;;;;;21.77;17.23;;;12.60;99.90;;;;;;5034235;28;20191;-75
2023/05/13 02:45:55;;;;;;;23.43;17.90;;;12.50;99.90;;;;;;5018563;28;20603;-76
2023/05/13 02:48:23;;;;;;;20.13;17.97;;;12.50;99.90;;;;;;5014117;28;20227;-76
2023/05/13 02:50:50;;;;;;;20.50;18.40;;;12.50;99.90;;;;;;5031666;28;20207;-76
2023/05/13 02:53:17;;;;;;;24.60;18.83;;;12.40;99.90;;;;;;5034439;28;20205;-76
2023/05/13 02:55:44;;;;;;;25.83;21.47;;;12.50;99.90;;;;;;5031277;28;20293;-76
2023/05/13 02:58:11;;;;;;;23.70;21.17;;;12.50;99.90;;;;;;5014131;28;20306;-77
2023/05/13 03:00:37;;;;;;;24.40;20.57;;;12.50;99.90;;;;;;5016829;28;20595;-75
2023/05/13 03:03:04;;;;;;;23.90;21.23;;;12.40;99.90;;;;;;5033149;28;20240;-76
2023/05/13 03:05:32;;;;;;;26.73;20.83;;;12.40;99.90;;;;;;5033929;28;20195;-76
2023/05/13 03:07:59;;;;;;;28.27;21.13;;;12.40;99.90;;;;;;5032102;28;20229;-77
2023/05/13 03:10:26;;;;;;;29.40;22.07;;;12.40;99.90;;;;;;5013727;28;20199;-76
2023/05/13 03:12:53;;;;;;;27.30;22.83;;;12.30;99.90;;;;;;5014777;28;20246;-82
2023/05/13 03:15:20;;;;;;;25.50;22.83;;;12.30;99.90;;;;;;5014492;28;20207;-83
2023/05/13 03:17:47;;;;;;;34.30;23.80;;;12.30;99.90;;;;;;5014787;28;20219;-81
2023/05/13 03:20:14;;;;;;;28.50;23.67;;;12.30;99.90;;;;;;5024186;28;20289;-82
2023/05/13 03:22:42;;;;;;;24.90;22.13;;;12.30;99.90;;;;;;5034454;28;20289;-83
2023/05/13 03:25:09;;;;;;;31.10;24.83;;;12.30;99.90;;;;;;5033317;28;20198;-82
2023/05/13 03:27:36;;;;;;;32.87;26.10;;;12.30;99.90;;;;;;5033880;28;20258;-75
2023/05/13 03:30:03;;;;;;;29.23;25.03;;;12.20;99.90;;;;;;5032961;28;20290;-76
2023/05/13 03:32:30;;;;;;;33.80;26.77;;;12.10;99.90;;;;;;5032292;28;20206;-76
2023/05/13 03:34:59;;;;;;;30.53;24.80;;;12.10;99.90;;;;;;5014033;28;20284;-76
2023/05/13 03:37:26;;;;;;;27.50;24.30;;;12.10;99.90;;;;;;5013026;28;20195;-76
2023/05/13 03:39:54;;;;;;;33.87;25.97;;;12.00;99.90;;;;;;5013664;28;20199;-77
2023/05/13 03:42:22;;;;;;;35.77;25.40;;;12.00;99.90;;;;;;5033557;28;20194;-76
2023/05/13 03:44:49;;;;;;;34.83;25.60;;;12.00;99.90;;;;;;5033037;28;20522;-76
2023/05/13 03:47:16;;;;;;;30.77;26.93;;;12.00;99.90;;;;;;5033482;28;20250;-79
2023/05/13 03:49:43;;;;;;;30.20;26.13;;;12.00;99.90;;;;;;5032999;28;20202;-79
2023/05/13 03:52:09;;;;;;;34.77;27.13;;;11.90;99.90;;;;;;5032621;28;20198;-76
2023/05/13 03:54:36;;;;;;;31.03;26.60;;;11.90;99.90;;;;;;5033534;28;20194;-79
2023/05/13 03:57:05;;;;;;;35.87;26.67;;;11.90;99.90;;;;;;5033357;28;20195;-76
2023/05/13 03:59:32;;;;;;;37.43;27.10;;;11.90;99.90;;;;;;5032081;28;20292;-79
2023/05/13 04:01:58;;;;;;;34.93;26.33;;;11.90;99.90;;;;;;5033523;28;20199;-77
2023/05/13 04:04:25;;;;;;;40.97;27.33;;;11.80;99.90;;;;;;5021582;28;20231;-74
2023/05/13 04:06:52;;;;;;;33.13;25.00;;;11.80;99.90;;;;;;5012851;28;20497;-74
2023/05/13 04:09:19;;;;;;;37.73;26.57;;;11.80;99.90;;;;;;5013338;28;20206;-75
2023/05/13 04:11:46;;;;;;;33.27;25.47;;;11.80;99.90;;;;;;5016012;28;20222;-75
2023/05/13 04:14:14;;;;;;;30.60;24.97;;;11.80;99.90;;;;;;5017396;28;20792;-75
2023/05/13 04:16:41;;;;;;;30.37;24.93;;;11.80;99.90;;;;;;5017331;28;20195;-75
2023/05/13 04:19:08;;;;;;;30.27;25.30;;;11.80;99.90;;;;;;5016886;28;20199;-78
2023/05/13 04:21:35;;;;;;;40.77;26.10;;;11.80;99.90;;;;;;5017628;28;20290;-75
2023/05/13 04:24:02;;;;;;;31.10;25.10;;;11.80;99.90;;;;;;5017398;28;20217;-76
2023/05/13 04:26:29;;;;;;;33.37;25.27;;;11.80;99.90;;;;;;5024510;28;20207;-77
2023/05/13 04:28:56;;;;;;;29.97;24.80;;;11.80;99.90;;;;;;5036937;28;20647;-76
2023/05/13 04:31:24;;;;;;;30.10;24.57;;;11.80;99.90;;;;;;5036956;28;20205;-76
2023/05/13 04:33:51;;;;;;;32.87;24.57;;;11.70;99.90;;;;;;5021241;28;20209;-76
2023/05/13 04:36:18;;;;;;;32.67;26.00;;;11.80;99.90;;;;;;5017271;28;20218;-77
2023/05/13 04:38:44;;;;;;;30.63;25.13;;;11.80;99.90;;;;;;5017052;28;20230;-76
2023/05/13 04:41:11;;;;;;;29.40;24.80;;;11.80;99.90;;;;;;5016229;28;20622;-77
2023/05/13 04:43:38;;;;;;;33.03;24.93;;;11.80;99.90;;;;;;5017133;28;20233;-76
2023/05/13 04:46:05;;;;;;;31.93;25.10;;;11.80;99.90;;;;;;5017110;28;20206;-76
2023/05/13 04:48:33;;;;;;;33.57;24.37;;;11.90;99.90;;;;;;5015959;28;20619;-76
2023/05/13 04:51:00;;;;;;;32.13;24.63;;;11.90;99.90;;;;;;5016615;28;20528;-83
2023/05/13 04:53:27;;;;;;;29.23;23.40;;;11.90;99.90;;;;;;5017298;28;20202;-81
2023/05/13 04:55:59;;;;;;;31.80;24.60;;;11.90;99.90;;;;;;5016396;28;20590;-82
2023/05/13 04:58:26;;;;;;;32.73;25.90;;;12.00;99.90;;;;;;5034391;28;20661;-83
2023/05/13 05:00:53;;;;;;;38.27;25.73;;;12.00;99.90;;;;;;5036591;28;20195;-82
2023/05/13 05:03:20;;;;;;;37.20;26.10;;;12.10;99.90;;;;;;5036817;28;20242;-80
2023/05/13 05:05:49;;;;;;;31.77;24.57;;;12.10;99.90;;;;;;5036303;28;20199;-82
2023/05/13 05:08:16;;;;;;;27.67;23.20;;;12.20;99.90;;;;;;5036345;28;20312;-78
2023/05/13 05:10:43;;;;;;;29.07;25.27;;;12.20;99.90;;;;;;5036574;28;20199;-82
2023/05/13 05:13:10;;;;;;;32.30;24.27;;;12.20;99.90;;;;;;5036325;28;20222;-77
2023/05/13 05:15:36;;;;;;;33.57;25.57;;;12.20;99.90;;;;;;5019655;28;20214;-76
2023/05/13 05:18:05;;;;;;;32.03;24.70;;;12.30;99.90;;;;;;5015777;28;20290;-76
2023/05/13 05:20:32;;;;;;;31.80;25.63;;;12.30;99.90;;;;;;5016462;28;20207;-78
2023/05/13 05:23:00;;;;;;;28.83;24.40;;;12.40;99.90;;;;;;5015241;28;20214;-75
2023/05/13 05:25:27;;;;;;;35.67;25.47;;;12.40;99.90;;;;;;5016298;28;20211;-75
2023/05/13 05:27:54;;;;;;;33.30;25.93;;;12.40;99.90;;;;;;5016341;28;20219;-82
2023/05/13 05:30:21;;;;;;;27.30;24.37;;;12.50;99.90;;;;;;5015791;28;20243;-81
2023/05/13 05:32:48;;;;;;;33.07;25.27;;;12.60;99.90;;;;;;5033767;28;20611;-81
2023/05/13 05:35:18;;;;;;;26.87;23.97;;;12.70;99.90;;;;;;5035968;28;20237;-82
2023/05/13 05:37:45;;;;;;;34.70;25.40;;;12.80;99.90;;;;;;5034119;28;20257;-79
2023/05/13 05:40:14;;;;;;;28.07;23.13;;;12.90;99.90;;;;;;5035814;28;20607;-81
2023/05/13 05:42:40;;;;;;;32.43;23.43;;;13.00;99.90;;;;;;5036302;28;20203;-77
2023/05/13 05:45:08;;;;;;;27.60;21.53;;;13.10;99.90;;;;;;5027266;28;20230;-82
2023/05/13 05:47:35;;;;;;;25.70;22.03;;;13.30;99.90;;;;;;5016073;28;20243;-81
2023/05/13 05:50:02;;;;;;;24.70;21.77;;;13.50;99.90;;;;;;5015451;28;20227;-79
2023/05/13 05:52:29;;;;;;;23.43;19.30;;;13.80;99.90;;;;;;5015900;28;20211;-79
2023/05/13 05:54:56;;;;;;;24.10;19.83;;;14.10;99.90;;;;;;5015830;28;20206;-80
2023/05/13 05:57:24;;;;;;;21.13;17.97;;;14.40;99.90;;;;;;5015192;28;20301;-80
2023/05/13 05:59:51;;;;;;;24.30;18.47;;;14.70;99.90;;;;;;5015813;28;20249;-81
2023/05/13 06:02:18;;;;;;;19.63;15.55;;;15.00;99.90;;;;;;5015752;28;20679;-79
2023/05/13 06:04:44;;;;;;;17.13;14.40;;;15.30;99.90;;;;;;5014848;28;20239;-81
2023/05/13 06:07:12;;;;;;;22.25;15.30;;;15.60;99.90;;;;;;5015624;28;20201;-75
2023/05/13 06:09:39;;;;;;;23.48;15.77;;;15.90;99.90;;;;;;5015333;28;20219;-80
2023/05/13 06:12:07;;;;;;;19.90;13.93;;;16.10;99.90;;;;;;5014330;28;20207;-81
2023/05/13 06:14:35;;;;;;;18.67;13.18;;;16.40;99.90;;;;;;5015051;28;20231;-81
2023/05/13 06:17:02;;;;;;;16.02;12.45;;;16.60;99.90;;;;;;5015410;28;20509;-81
2023/05/13 06:19:29;;;;;;;15.10;11.75;;;16.80;99.90;;;;;;5014667;28;20522;-82
2023/05/13 06:21:56;;;;;;;20.33;12.30;;;16.90;99.90;;;;;;5015598;28;20558;-82
2023/05/13 06:24:22;;;;;;;14.02;10.68;;;17.00;99.90;;;;;;5015437;28;20215;-81
2023/05/13 06:26:49;;;;;;;14.90;11.15;;;17.10;99.90;;;;;;5014910;28;20497;-76
2023/05/13 06:29:16;;;;;;;12.25;10.15;;;17.40;99.90;;;;;;5014686;28;20626;-76
2023/05/13 06:31:44;;;;;;;13.25;9.90;;;17.60;99.90;;;;;;5014944;28;20250;-75
2023/05/13 06:34:15;;;;;;;17.50;10.13;;;17.70;99.90;;;;;;5013344;28;20258;-80
2023/05/13 06:36:42;;;;;;;12.38;9.63;;;17.80;99.90;;;;;;5015085;28;20199;-77
2023/05/13 06:39:09;;;;;;;13.02;9.43;;;17.90;99.90;;;;;;5014873;28;20199;-77
2023/05/13 06:41:36;;;;;;;10.80;8.70;;;18.10;99.90;;;;;;5014625;28;20530;-83
2023/05/13 06:44:03;;;;;;;14.20;8.57;;;18.30;99.90;;;;;;5014848;28;20586;-79
2023/05/13 06:46:30;;;;;;;9.38;8.38;;;18.30;99.90;;;;;;5013960;28;20318;-82
2023/05/13 06:48:58;;;;;;;10.45;7.80;;;18.50;99.90;;;;;;5014849;28;20221;-82
2023/05/13 06:51:26;;;;;;;10.75;8.27;;;18.60;99.90;;;;;;5024936;28;20221;-78
2023/05/13 06:53:53;;;;;;;11.93;8.50;;;18.60;99.90;;;;;;5034104;28;20199;-83
2023/05/13 06:56:21;;;;;;;13.73;7.80;;;18.70;99.90;;;;;;5034338;28;20202;-78
2023/05/13 06:58:48;;;;;;;12.98;7.72;;;18.80;99.90;;;;;;5034164;28;20297;-81
2023/05/13 07:01:15;;;;;;;15.68;7.75;;;19.00;99.90;;;;;;5015748;28;20206;-82
2023/05/13 07:03:42;;;;;;;11.68;8.02;;;19.10;82.80;;;;;;5014030;28;20254;-78
2023/05/13 07:06:11;;;;;;;11.35;8.25;;;19.20;46.30;;;;;;5014462;28;20548;-80
2023/05/13 07:08:39;;;;;;;8.65;6.35;;;19.00;87.20;;;;;;5013721;28;20223;-81
2023/05/13 07:11:06;;;;;;;7.85;6.70;;;19.00;69.70;;;;;;5014535;28;20277;-78
2023/05/13 07:13:33;;;;;;;9.73;6.30;;;19.20;77.50;;;;;;5014206;28;20202;-78
2023/05/13 07:16:01;;;;;;;8.48;6.03;;;19.40;27.90;;;;;;5013405;28;20208;-81
2023/05/13 07:18:27;;;;;;;9.10;5.85;;;19.50;1.00;;;;;;5013769;28;20642;-79
2023/05/13 07:20:55;;;;;;;10.00;5.55;;;19.70;1.00;;;;;;5014059;28;20202;-81
2023/05/13 07:23:23;;;;;;;9.25;5.35;;;19.70;1.00;;;;;;5013532;28;20199;-82
2023/05/13 07:25:51;;;;;;;9.63;5.03;;;19.70;1.00;;;;;;5028409;28;20606;-77
2023/05/13 07:28:18;;;;;;;8.35;5.22;;;19.80;1.00;;;;;;5033860;28;20226;-77
2023/05/13 07:30:45;;;;;;;5.88;4.90;;;19.90;1.00;;;;;;5031558;28;20269;-83
2023/05/13 07:33:12;;;;;;;7.35;5.13;;;20.00;1.00;;;;;;5033712;28;20199;-77
2023/05/13 07:35:39;;;;;;;8.32;5.65;;;20.00;1.00;;;;;;5033023;28;20205;-80
2023/05/13 07:38:08;;;;;;;6.18;5.45;;;19.90;1.00;;;;;;5033357;28;20200;-80
2023/05/13 07:40:37;;;;;;;8.52;5.30;;;20.10;1.00;;;;;;5032044;28;20213;-78
2023/05/13 07:43:04;;;;;;;6.57;4.78;;;20.20;1.00;;;;;;5033032;28;20293;-83
2023/05/13 07:45:31;;;;;;;7.47;5.00;;;20.20;1.00;;;;;;5028574;28;20234;-80
2023/05/13 07:47:58;;;;;;;8.18;4.88;;;20.40;1.00;;;;;;5013744;28;20199;-84
2023/05/13 07:50:25;;;;;;;6.97;4.88;;;20.40;1.00;;;;;;5026896;28;20328;-82
2023/05/13 07:52:52;;;;;;;7.22;4.88;;;20.40;1.00;;;;;;5033271;28;20885;-82
2023/05/13 07:55:20;;;;;;;8.13;4.93;;;20.50;1.00;;;;;;5033550;28;20198;-81
2023/05/13 07:57:48;;;;;;;10.38;5.10;;;20.50;1.00;;;;;;5032830;28;20313;-83
2023/05/13 08:00:15;;;;;;;6.97;4.22;;;20.60;1.00;;;;;;5032350;28;20683;-82
2023/05/13 08:02:43;;;;;;;6.03;4.43;;;20.90;1.00;;;;;;5033556;28;20207;-83
2023/05/13 08:05:11;;;;;;;6.70;4.72;;;21.10;1.00;;;;;;5032586;28;20198;-80
2023/05/13 08:07:37;;;;;;;4.82;4.07;;;21.40;1.00;;;;;;5032344;28;20202;-79
2023/05/13 08:10:05;;;;;;;5.53;4.00;;;21.10;99.90;;;;;;5032535;28;20246;-82
2023/05/13 08:12:32;;;;;;;7.82;4.80;;;21.20;99.90;;;;;;5032330;28;20213;-82
2023/05/13 08:15:02;;;;;;;7.45;4.90;;;21.10;99.90;;;;;;5025139;28;20564;-77
2023/05/13 08:17:29;;;;;;;4.53;3.85;;;21.20;99.90;;;;;;5013593;28;20293;-78
2023/05/13 08:19:56;;;;;;;9.25;4.32;;;21.20;99.90;;;;;;5012851;28;20285;-78
2023/05/13 08:22:23;;;;;;;5.50;4.13;;;21.30;1.00;;;;;;5013358;28;20209;-77
2023/05/13 08:24:49;;;;;;;6.50;4.28;;;21.40;1.00;;;;;;5012458;28;20221;-78
2023/05/13 08:27:17;;;;;;;8.40;4.47;;;21.30;1.00;;;;;;5013375;28;20445;-82
2023/05/13 08:29:43;;;;;;;7.72;4.70;;;21.10;1.00;;;;;;5013361;28;20219;-80
2023/05/13 08:32:12;;;;;;;7.35;3.97;;;21.30;1.00;;;;;;5012597;28;20210;-78
2023/05/13 08:34:38;;;;;;;9.93;4.88;;;21.30;1.00;;;;;;5013304;28;20211;-79
2023/05/13 08:37:05;;;;;;;7.18;4.60;;;21.30;1.00;;;;;;5013171;28;20286;-77
2023/05/13 08:39:33;;;;;;;8.75;4.78;;;21.00;1.00;;;;;;5012766;28;20202;-80
2023/05/13 08:42:03;;;;;;;4.88;4.43;;;21.00;1.00;;;;;;5013561;28;20211;-76
2023/05/13 08:44:32;;;;;;;5.50;4.40;;;21.10;99.90;;;;;;5013254;28;20206;-77
2023/05/13 08:47:06;;;;;;;6.20;4.10;;;21.30;1.00;;;;;;5012226;28;20214;-79
2023/05/13 08:49:35;;;;;;;6.60;3.95;;;21.40;1.00;;;;;;5013086;28;20230;-81
2023/05/13 08:52:02;;;;;;;8.70;4.50;;;21.60;99.90;;;;;;5013036;28;20599;-77
2023/05/13 08:54:30;;;;;;;8.82;4.72;;;21.70;1.00;;;;;;5012574;28;20214;-83
2023/05/13 08:56:57;;;;;;;6.55;4.55;;;21.80;1.00;;;;;;5014957;28;20257;-78
2023/05/13 08:59:24;;;;;;;7.88;4.22;;;21.40;99.90;;;;;;5016624;28;20610;-78
2023/05/13 09:01:53;;;;;;;8.30;5.00;;;21.50;99.90;;;;;;5016070;28;20687;-82
2023/05/13 09:04:20;;;;;;;5.43;4.70;;;21.60;1.00;;;;;;5016380;28;20702;-77
2023/05/13 09:06:49;;;;;;;6.20;4.40;;;21.70;99.90;;;;;;5016434;28;20278;-78
2023/05/13 09:09:16;;;;;;;8.15;4.75;;;21.80;99.90;;;;;;5016027;28;20238;-79
2023/05/13 09:11:43;;;;;;;5.60;4.80;;;21.70;99.90;;;;;;5016175;28;20600;-82
2023/05/13 09:14:10;;;;;;;8.73;4.72;;;21.70;99.90;;;;;;5016090;28;20684;-82
2023/05/13 09:16:38;;;;;;;7.32;4.85;;;21.70;99.90;;;;;;5019878;28;20202;-78
2023/05/13 09:19:06;;;;;;;7.25;4.38;;;21.80;1.00;;;;;;5036046;28;20230;-79
2023/05/13 09:21:35;;;;;;;9.07;4.72;;;22.00;99.90;;;;;;5035805;28;20203;-81
2023/05/13 09:24:07;;;;;;;8.60;4.43;;;22.00;1.00;;;;;;5024038;28;20622;-79
2023/05/13 09:26:34;;;;;;;6.15;4.88;;;21.70;1.00;;;;;;5016495;28;20203;-81
2023/05/13 09:29:18;;;;;;;8.27;4.63;;;21.80;99.90;;;;;;5015613;28;20527;-78
2023/05/13 09:31:47;;;;;;;7.32;4.57;;;21.90;99.90;;;;;;5016547;28;20206;-78
2023/05/13 09:34:14;;;;;;;9.73;4.50;;;21.90;1.00;;;;;;5016223;28;20209;-81
2023/05/13 09:36:41;;;;;;;5.68;4.45;;;21.70;1.00;;;;;;5015428;28;20207;-82
2023/05/13 09:39:12;;;;;;;7.00;5.25;;;21.80;99.90;;;;;;5015723;28;20226;-80
2023/05/13 09:41:39;;;;;;;7.10;4.32;;;21.80;1.00;;;;;;5016144;28;20199;-80
2023/05/13 09:44:08;;;;;;;7.93;4.30;;;21.90;99.90;;;;;;5015803;28;20282;-77
2023/05/13 09:46:34;;;;;;;4.45;4.05;;;21.80;1.00;;;;;;5016268;28;20231;-79
2023/05/13 09:49:04;;;;;;;5.55;4.07;;;21.90;1.00;;;;;;5016079;28;20524;-79
2023/05/13 09:51:31;;;;;;;6.95;4.20;;;22.20;99.90;;;;;;5016233;28;20209;-78
2023/05/13 09:54:05;;;;;;;7.57;3.83;;;22.20;1.00;;;;;;5015660;28;20214;-79
2023/05/13 09:56:34;;;;;;;10.60;4.20;;;22.20;1.00;;;;;;5019223;28;20281;-80
2023/05/13 09:59:01;;;;;;;8.20;4.20;;;22.40;1.00;;;;;;5035742;28;20221;-81
2023/05/13 10:01:29;;;;;;;6.40;4.22;;;22.50;1.00;;;;;;5034439;28;20207;-81
2023/05/13 10:03:58;;;;;;;6.28;4.32;;;22.40;1.00;;;;;;5035085;28;20288;-78
2023/05/13 10:06:26;;;;;;;6.72;3.83;;;22.40;99.90;;;;;;5035702;28;20230;-81
2023/05/13 10:08:55;;;;;;;10.55;4.65;;;22.60;1.00;;;;;;5022142;28;20219;-80
2023/05/13 10:11:24;;;;;;;8.65;4.30;;;22.30;99.90;;;;;;5014950;28;20588;-78
2023/05/13 10:13:58;;;;;;;6.88;4.10;;;22.30;1.00;;;;;;5016838;28;20196;-79
2023/05/13 10:16:25;;;;;;;9.15;4.53;;;22.00;1.00;;;;;;5035224;28;20208;-77
2023/05/13 10:18:53;;;;;;;9.43;4.20;;;22.00;1.00;;;;;;5028098;28;20214;-79
2023/05/13 10:21:20;;;;;;;7.90;4.13;;;22.20;1.00;;;;;;5015553;28;20766;-78
2023/05/13 10:23:50;;;;;;;6.20;4.55;;;22.40;1.00;;;;;;5015472;28;20281;-80
2023/05/13 10:26:17;;;;;;;6.32;4.18;;;22.50;99.90;;;;;;5014803;28;20278;-79
2023/05/13 10:28:45;;;;;;;8.90;4.85;;;22.50;99.90;;;;;;5015305;28;20592;-77
2023/05/13 10:31:14;;;;;;;6.60;4.60;;;22.50;1.00;;;;;;5015291;28;20199;-75
2023/05/13 10:33:41;;;;;;;8.40;4.88;;;22.50;1.00;;;;;;5014909;28;20218;-82
2023/05/13 10:36:21;;;;;;;8.70;4.45;;;22.40;1.00;;;;;;5014794;28;20226;-78
2023/05/13 10:39:07;;;;;;;8.25;4.68;;;22.50;1.00;;;;;;5014291;28;20199;-78
2023/05/13 10:42:19;;;;;;;11.20;6.25;;;22.40;99.90;;;;;;5014955;28;20203;-77
2023/05/13 10:44:46;;;;;;;9.63;5.20;;;22.50;99.90;;;;;;4968813;28;20606;-76
2023/05/13 10:47:16;;;;;;;8.60;4.78;;;22.30;1.00;;;;;;5014593;28;20226;-80
2023/05/13 10:49:51;;;;;;;9.25;5.50;;;22.30;1.00;;;;;;5014900;28;20339;-74
2023/05/13 10:52:18;;;;;;;7.20;5.03;;;22.30;1.00;;;;;;5014936;28;20207;-76
2023/05/13 10:55:00;;;;;;;8.55;5.80;;;22.50;1.00;;;;;;5014053;28;20290;-77
2023/05/13 10:57:30;;;;;;;9.10;5.38;;;22.40;1.00;;;;;;5014644;28;20631;-77
2023/05/13 11:00:14;;;;;;;7.50;5.13;;;22.20;1.00;;;;;;5013926;28;20195;-79
2023/05/13 11:02:42;;;;;;;12.55;6.32;;;22.40;99.90;;;;;;5014783;28;20234;-77
2023/05/13 11:05:10;;;;;;;11.70;6.43;;;22.60;1.00;;;;;;5014224;28;20588;-77
2023/05/13 11:07:40;;;;;;;10.40;6.05;;;22.70;1.00;;;;;;5013768;28;20230;-75
2023/05/13 11:10:26;;;;;;;12.05;5.85;;;22.80;1.00;;;;;;5014543;28;20218;-76
2023/05/13 11:13:24;;;;;;;11.93;5.95;;;22.80;1.00;;;;;;5026231;28;20264;-76
2023/05/13 11:15:53;;;;;;;12.13;6.60;;;22.50;1.00;;;;;;5030806;28;20199;-75
2023/05/13 11:18:29;;;;;;;9.75;5.78;;;22.20;99.90;;;;;;5014193;28;20199;-79
2023/05/13 11:21:02;;;;;;;10.73;6.78;;;22.50;1.00;;;;;;5013525;28;20191;-77
2023/05/13 11:23:29;;;;;;;13.63;6.90;;;22.40;1.00;;;;;;5014255;28;20545;-77
2023/05/13 11:26:15;;;;;;;12.43;7.22;;;22.40;1.00;;;;;;5023647;28;20202;-79
2023/05/13 11:28:57;;;;;;;13.73;7.65;;;22.40;1.00;;;;;;5033808;28;20392;-80
2023/05/13 11:31:24;;;;;;;10.30;5.88;;;22.50;1.00;;;;;;5033967;28;20195;-79
2023/05/13 11:34:09;;;;;;;10.48;6.70;;;22.60;61.40;;;;;;5033861;28;20285;-75
2023/05/13 11:36:38;;;;;;;9.15;5.40;;;22.50;1.00;;;;;;5032485;28;20252;-79
2023/05/13 11:39:11;;;;;;;10.73;5.93;;;22.50;1.00;;;;;;5033682;28;20195;-80
2023/05/13 11:41:41;;;;;;;11.15;6.00;;;22.50;1.00;;;;;;5033511;28;20627;-80
2023/05/13 11:44:08;;;;;;;7.38;6.20;;;22.70;1.00;;;;;;5019436;28;20210;-80
2023/05/13 11:46:35;;;;;;;9.02;5.65;;;22.80;99.90;;;;;;5013658;28;20795;-77
2023/05/13 11:49:02;;;;;;;10.13;5.38;;;22.70;1.00;;;;;;5013138;28;20902;-81
2023/05/13 11:51:31;;;;;;;9.68;5.85;;;22.70;1.00;;;;;;5013759;28;20250;-79
2023/05/13 11:54:05;;;;;;;12.05;6.22;;;22.90;1.00;;;;;;5027580;28;20206;-78
2023/05/13 11:56:32;;;;;;;9.35;6.25;;;23.00;1.00;;;;;;5032137;28;20234;-77
2023/05/13 11:59:14;;;;;;;12.52;6.75;;;22.80;99.90;;;;;;5033446;28;20228;-84
2023/05/13 12:01:41;;;;;;;13.68;6.88;;;22.70;99.90;;;;;;5033168;28;20607;-78
2023/05/13 12:04:08;;;;;;;9.68;6.72;;;22.80;99.90;;;;;;5031705;28;20312;-82
2023/05/13 12:06:44;;;;;;;13.77;7.35;;;22.70;99.90;;;;;;5033401;28;20595;-84
2023/05/13 12:09:12;;;;;;;8.57;6.60;;;22.70;99.90;;;;;;5033275;28;20202;-81
2023/05/13 12:11:39;;;;;;;15.40;7.05;;;22.70;99.90;;;;;;5033642;28;20286;-79
2023/05/13 12:14:07;;;;;;;10.00;6.68;;;23.00;99.90;;;;;;5032150;28;20313;-79
2023/05/13 12:16:34;;;;;;;7.78;6.97;;;22.90;99.90;;;;;;5031903;28;20207;-78
2023/05/13 12:19:04;;;;;;;12.80;8.38;;;22.80;99.90;;;;;;5032790;28;20213;-82
2023/05/13 12:21:33;;;;;;;14.73;8.43;;;22.70;99.90;;;;;;5031758;28;20199;-77
2023/05/13 12:24:01;;;;;;;14.55;7.78;;;22.40;99.90;;;;;;5032737;28;20183;-79
2023/05/13 12:26:28;;;;;;;16.40;7.88;;;22.40;99.90;;;;;;5018876;28;20299;-80
2023/05/13 12:28:59;;;;;;;11.32;6.85;;;22.50;99.90;;;;;;5013124;28;20631;-81
2023/05/13 12:31:26;;;;;;;9.32;7.82;;;22.70;99.90;;;;;;5014483;28;20225;-79
2023/05/13 12:33:53;;;;;;;12.77;8.23;;;22.70;99.90;;;;;;5036985;28;20195;-77
2023/05/13 12:36:24;;;;;;;11.45;8.00;;;22.70;99.90;;;;;;5037351;28;20203;-81
2023/05/13 12:38:55;;;;;;;11.63;7.60;;;22.60;99.90;;;;;;5036671;28;20221;-76
2023/05/13 12:41:24;;;;;;;12.48;6.90;;;22.50;99.90;;;;;;5035289;28;20226;-79
2023/05/13 12:43:55;;;;;;;11.82;7.90;;;22.40;99.90;;;;;;5036804;28;20202;-77